createdAt,value
2022-11-19T00:01:26.725Z,5.13
2022-11-19T00:03:55.879Z,5.30
2022-11-19T00:06:24.692Z,5.03
2022-11-19T00:08:51.868Z,4.28
2022-11-19T00:11:42.730Z,3.55
2022-11-19T00:14:12.525Z,5.28
2022-11-19T00:19:06.555Z,4.40
2022-11-19T00:21:33.613Z,4.78
2022-11-19T00:24:00.306Z,4.75
2022-11-19T00:26:27.406Z,4.45
2022-11-19T00:28:55.074Z,4.82
2022-11-19T00:31:21.844Z,3.72
2022-11-19T00:33:50.585Z,5.00
2022-11-19T00:36:17.908Z,4.65
2022-11-19T00:38:44.644Z,4.20
2022-11-19T00:41:11.576Z,3.65
2022-11-19T00:43:47.959Z,5.03
2022-11-19T00:46:21.964Z,3.30
2022-11-19T00:48:50.374Z,4.50
2022-11-19T00:51:18.642Z,3.67
2022-11-19T00:53:46.336Z,3.92
2022-11-19T00:56:16.353Z,5.82
2022-11-19T00:58:43.815Z,6.30
2022-11-19T01:01:13.431Z,3.65
2022-11-19T01:03:41.240Z,3.40
2022-11-19T01:06:09.170Z,4.57
2022-11-19T01:08:36.062Z,5.50
2022-11-19T01:11:14.354Z,4.45
2022-11-19T01:13:43.907Z,2.85
2022-11-19T01:16:22.342Z,5.35
2022-11-19T01:18:50.752Z,4.53
2022-11-19T01:21:18.890Z,4.78
2022-11-19T01:23:46.162Z,4.45
2022-11-19T01:26:14.204Z,5.47
2022-11-19T01:28:41.383Z,4.82
2022-11-19T01:31:14.044Z,4.78
2022-11-19T01:33:41.028Z,5.47
2022-11-19T01:36:12.204Z,4.82
2022-11-19T01:38:38.963Z,4.82
2022-11-19T01:41:08.598Z,7.20
2022-11-19T01:44:05.649Z,6.03
2022-11-19T01:46:36.005Z,7.07
2022-11-19T01:49:10.460Z,5.15
2022-11-19T01:51:38.973Z,4.47
2022-11-19T01:54:11.366Z,5.57
2022-11-19T01:56:40.337Z,6.00
2022-11-19T01:59:14.019Z,4.78
2022-11-19T02:01:42.086Z,4.70
2022-11-19T02:04:09.298Z,5.70
2022-11-19T02:06:38.835Z,4.82
2022-11-19T02:09:05.544Z,5.70
2022-11-19T02:11:38.305Z,8.82
2022-11-19T02:14:26.718Z,5.82
2022-11-19T02:16:53.339Z,5.53
2022-11-19T02:19:43.768Z,5.28
2022-11-19T02:22:34.555Z,5.03
2022-11-19T02:25:01.197Z,4.88
2022-11-19T02:27:46.656Z,5.32
2022-11-19T02:30:18.274Z,5.68
2022-11-19T02:32:52.922Z,6.68
2022-11-19T02:35:32.433Z,5.30
2022-11-19T02:38:13.242Z,5.60
2022-11-19T02:40:49.783Z,5.72
2022-11-19T02:43:50.203Z,5.25
2022-11-19T02:46:17.909Z,6.03
2022-11-19T02:48:50.639Z,5.38
2022-11-19T02:51:18.752Z,6.40
2022-11-19T02:53:51.427Z,5.53
2022-11-19T02:56:49.195Z,7.38
2022-11-19T02:59:37.470Z,8.43
2022-11-19T03:02:27.312Z,6.25
2022-11-19T03:04:55.386Z,6.25
2022-11-19T03:07:22.422Z,5.35
2022-11-19T03:09:54.209Z,6.32
2022-11-19T03:12:51.479Z,8.55
2022-11-19T03:15:43.714Z,5.53
2022-11-19T03:18:14.220Z,7.90
2022-11-19T03:21:06.513Z,7.43
2022-11-19T03:23:38.925Z,6.70
2022-11-19T03:26:09.068Z,5.97
2022-11-19T03:28:37.814Z,5.95
2022-11-19T03:31:08.400Z,8.15
2022-11-19T03:33:45.899Z,7.13
2022-11-19T03:36:23.990Z,6.28
2022-11-19T03:38:55.618Z,5.20
2022-11-19T03:41:26.421Z,5.18
2022-11-19T03:44:02.361Z,6.28
2022-11-19T03:46:32.521Z,6.68
2022-11-19T03:49:01.952Z,5.50
2022-11-19T03:51:52.066Z,4.70
2022-11-19T03:54:20.940Z,6.75
2022-11-19T03:56:49.422Z,4.93
2022-11-19T03:59:17.172Z,4.25
2022-11-19T04:01:52.376Z,4.38
2022-11-19T04:04:37.422Z,1.58
2022-11-19T04:07:09.113Z,3.17
2022-11-19T04:09:36.135Z,2.13
2022-11-19T04:12:03.650Z,1.63
2022-11-19T04:14:30.501Z,1.10
2022-11-19T04:16:57.176Z,1.40
2022-11-19T04:19:26.054Z,1.40
2022-11-19T04:21:54.950Z,1.38
2022-11-19T04:24:21.813Z,2.17
2022-11-19T04:26:50.872Z,1.00
2022-11-19T04:29:18.031Z,1.40
2022-11-19T04:31:45.011Z,3.83
2022-11-19T04:34:11.788Z,1.20
2022-11-19T04:36:40.268Z,1.00
2022-11-19T04:39:07.213Z,1.25
2022-11-19T04:41:36.561Z,1.33
2022-11-19T04:44:05.770Z,1.30
2022-11-19T04:46:32.486Z,1.30
2022-11-19T04:49:02.409Z,3.35
2022-11-19T04:53:57.969Z,1.27
2022-11-19T04:56:26.872Z,1.23
2022-11-19T04:58:53.710Z,2.75
2022-11-19T05:01:20.988Z,2.28
2022-11-19T05:03:48.462Z,0.85
2022-11-19T05:06:15.183Z,1.27
2022-11-19T05:08:44.046Z,1.70
2022-11-19T05:11:13.127Z,0.77
2022-11-19T05:13:42.396Z,1.30
2022-11-19T05:16:11.973Z,0.83
2022-11-19T05:18:41.078Z,0.75
2022-11-19T05:21:09.934Z,2.55
2022-11-19T05:23:36.725Z,2.05
2022-11-19T05:26:03.619Z,3.00
2022-11-19T05:28:38.954Z,0.88
2022-11-19T05:31:07.643Z,1.77
2022-11-19T05:33:34.828Z,0.80
2022-11-19T05:36:02.265Z,0.95
2022-11-19T05:38:29.089Z,0.90
2022-11-19T05:40:55.748Z,1.80
2022-11-19T05:43:24.659Z,1.60
2022-11-19T05:45:51.611Z,1.48
2022-11-19T05:48:18.344Z,1.35
2022-11-19T05:50:47.493Z,1.40
2022-11-19T05:53:14.181Z,1.37
2022-11-19T05:55:40.888Z,1.67
2022-11-19T05:58:07.547Z,1.45
2022-11-19T06:00:37.140Z,1.52
2022-11-19T06:03:03.961Z,1.63
2022-11-19T06:05:34.724Z,1.70
2022-11-19T06:08:06.097Z,1.90
2022-11-19T06:10:32.847Z,2.75
2022-11-19T06:12:59.518Z,1.80
2022-11-19T06:15:26.221Z,3.20
2022-11-19T06:17:52.904Z,2.38
2022-11-19T06:20:19.626Z,2.75
2022-11-19T06:22:46.372Z,2.28
2022-11-19T06:25:13.733Z,3.28
2022-11-19T06:27:40.459Z,2.22
2022-11-19T06:30:07.682Z,2.30
2022-11-19T06:32:34.527Z,2.45
2022-11-19T06:35:04.036Z,2.45
2022-11-19T06:37:30.839Z,2.55
2022-11-19T06:39:57.538Z,6.93
2022-11-19T06:42:36.267Z,2.63
2022-11-19T06:45:16.395Z,3.08
2022-11-19T06:50:16.054Z,2.65
2022-11-19T06:52:42.753Z,4.30
2022-11-19T06:55:09.661Z,2.58
2022-11-19T06:57:36.323Z,3.10
2022-11-19T07:00:04.403Z,4.40
2022-11-19T07:02:33.430Z,3.80
2022-11-19T07:05:00.305Z,4.65
2022-11-19T07:07:27.528Z,4.40
2022-11-19T07:09:54.235Z,4.80
2022-11-19T07:12:20.944Z,4.68
2022-11-19T07:14:47.639Z,4.00
2022-11-19T07:17:14.308Z,4.80
2022-11-19T07:19:41.039Z,4.85
2022-11-19T07:22:07.797Z,6.00
2022-11-19T07:24:36.692Z,6.18
2022-11-19T07:27:03.561Z,4.70
2022-11-19T07:29:30.269Z,5.40
2022-11-19T07:31:56.979Z,5.60
2022-11-19T07:34:23.742Z,4.63
2022-11-19T07:36:50.524Z,5.15
2022-11-19T07:39:17.815Z,4.93
2022-11-19T07:42:03.624Z,5.35
2022-11-19T07:44:30.388Z,5.65
2022-11-19T07:46:57.252Z,4.63
2022-11-19T07:49:24.986Z,5.28
2022-11-19T07:51:54.511Z,5.72
2022-11-19T07:54:21.359Z,5.95
2022-11-19T07:56:50.551Z,5.57
2022-11-19T07:59:22.629Z,5.20
2022-11-19T08:01:49.531Z,5.60
2022-11-19T08:04:16.275Z,7.88
2022-11-19T08:06:42.900Z,5.75
2022-11-19T08:09:09.715Z,5.78
2022-11-19T08:11:36.435Z,5.22
2022-11-19T08:14:03.217Z,6.50
2022-11-19T08:16:51.301Z,7.30
2022-11-19T08:19:18.898Z,6.38
2022-11-19T08:21:47.001Z,4.57
2022-11-19T08:24:15.724Z,5.60
2022-11-19T08:26:42.828Z,6.15
2022-11-19T08:29:16.432Z,5.40
2022-11-19T08:31:45.286Z,6.22
2022-11-19T08:34:14.489Z,6.75
2022-11-19T08:36:41.426Z,5.93
2022-11-19T08:39:08.139Z,6.32
2022-11-19T08:41:58.393Z,5.65
2022-11-19T08:44:25.250Z,6.85
2022-11-19T08:46:54.515Z,5.63
2022-11-19T08:49:21.871Z,5.50
2022-11-19T08:51:48.519Z,5.45
2022-11-19T08:54:15.252Z,6.50
2022-11-19T08:56:44.347Z,7.13
2022-11-19T08:59:13.389Z,5.15
2022-11-19T09:01:40.371Z,7.53
2022-11-19T09:04:07.089Z,6.35
2022-11-19T09:06:37.348Z,5.72
2022-11-19T09:09:04.845Z,6.07
2022-11-19T09:11:32.865Z,6.10
2022-11-19T09:13:59.593Z,6.05
2022-11-19T09:16:26.336Z,5.82
2022-11-19T09:18:53.422Z,7.60
2022-11-19T09:21:22.642Z,6.50
2022-11-19T09:23:54.024Z,6.83
2022-11-19T09:26:23.199Z,6.25
2022-11-19T09:28:52.940Z,6.03
2022-11-19T09:31:22.162Z,6.50
2022-11-19T09:33:50.993Z,7.00
2022-11-19T09:36:21.273Z,5.70
2022-11-19T09:38:48.995Z,5.70
2022-11-19T09:41:30.471Z,6.90
2022-11-19T09:44:25.470Z,6.63
2022-11-19T09:46:58.214Z,5.95
2022-11-19T09:49:40.976Z,4.93
2022-11-19T09:52:13.813Z,5.32
2022-11-19T09:54:47.935Z,5.03
2022-11-19T09:57:28.293Z,4.78
2022-11-19T09:59:58.037Z,6.32
2022-11-19T10:02:24.797Z,5.57
2022-11-19T10:04:51.929Z,5.85
2022-11-19T10:07:33.636Z,5.60
2022-11-19T10:10:22.962Z,6.40
2022-11-19T10:13:12.388Z,5.50
2022-11-19T10:15:51.061Z,7.82
2022-11-19T10:18:32.176Z,5.32
2022-11-19T10:21:11.835Z,5.43
2022-11-19T10:24:02.909Z,5.80
2022-11-19T10:26:41.811Z,5.72
2022-11-19T10:29:24.721Z,5.60
2022-11-19T10:31:52.562Z,6.07
2022-11-19T10:34:33.595Z,5.43
2022-11-19T10:37:02.623Z,5.65
2022-11-19T10:39:39.901Z,5.70
2022-11-19T10:42:20.457Z,4.63
2022-11-19T10:44:59.271Z,5.18
2022-11-19T10:47:41.315Z,6.45
2022-11-19T10:50:16.111Z,6.07
2022-11-19T10:52:46.346Z,7.28
2022-11-19T10:55:23.669Z,6.22
2022-11-19T10:58:05.579Z,6.32
2022-11-19T11:00:35.827Z,7.35
2022-11-19T11:03:03.101Z,5.65
2022-11-19T11:05:30.768Z,5.75
2022-11-19T11:08:11.343Z,6.03
2022-11-19T11:10:43.011Z,6.38
2022-11-19T11:13:52.704Z,7.10
2022-11-19T11:16:23.209Z,6.13
2022-11-19T11:18:52.614Z,5.35
2022-11-19T11:21:38.369Z,6.50
2022-11-19T11:24:05.482Z,5.70
2022-11-19T11:26:33.988Z,7.30
2022-11-19T11:29:05.376Z,5.95
2022-11-19T11:31:35.470Z,5.78
2022-11-19T11:36:36.360Z,5.72
2022-11-19T11:39:05.242Z,5.80
2022-11-19T11:44:36.480Z,5.95
2022-11-19T11:47:14.311Z,6.88
2022-11-19T11:49:43.825Z,6.13
2022-11-19T11:52:29.127Z,6.35
2022-11-19T11:55:00.483Z,5.20
2022-11-19T11:57:36.024Z,5.82
2022-11-19T12:00:34.632Z,6.90
2022-11-19T12:03:18.913Z,6.38
2022-11-19T12:05:51.718Z,7.20
2022-11-19T12:08:33.757Z,5.55
2022-11-19T12:11:20.678Z,6.00
2022-11-19T12:13:51.281Z,5.45
2022-11-19T12:16:20.864Z,6.35
2022-11-19T12:18:52.757Z,5.20
2022-11-19T12:21:27.796Z,6.72
2022-11-19T12:24:12.947Z,5.80
2022-11-19T12:26:57.545Z,6.38
2022-11-19T12:30:01.463Z,5.80
2022-11-19T12:32:28.112Z,5.55
2022-11-19T12:35:14.589Z,5.53
2022-11-19T12:38:00.180Z,5.47
2022-11-19T12:40:40.610Z,9.75
2022-11-19T12:43:45.802Z,5.43
2022-11-19T12:46:31.241Z,7.57
2022-11-19T12:49:27.447Z,8.30
2022-11-19T12:52:18.867Z,5.35
2022-11-19T12:55:21.943Z,7.15
2022-11-19T12:58:01.950Z,6.18
2022-11-19T13:00:30.558Z,6.28
2022-11-19T13:03:14.951Z,6.75
2022-11-19T13:05:56.664Z,7.68
2022-11-19T13:08:40.316Z,8.20
2022-11-19T13:11:36.544Z,8.77
2022-11-19T13:14:08.498Z,10.70
2022-11-19T13:16:36.127Z,8.52
2022-11-19T13:19:31.332Z,7.03
2022-11-19T13:22:10.918Z,8.63
2022-11-19T13:24:45.709Z,7.07
2022-11-19T13:27:22.773Z,8.43
2022-11-19T13:30:04.111Z,7.32
2022-11-19T13:32:44.240Z,10.05
2022-11-19T13:35:27.820Z,7.78
2022-11-19T13:38:00.264Z,6.80
2022-11-19T13:40:41.854Z,9.30
2022-11-19T13:43:47.618Z,7.80
2022-11-19T13:46:22.302Z,7.97
2022-11-19T13:48:56.924Z,6.60
2022-11-19T13:51:35.070Z,7.20
2022-11-19T13:54:06.824Z,7.35
2022-11-19T13:56:39.650Z,7.30
2022-11-19T13:59:07.757Z,7.28
2022-11-19T14:01:57.803Z,7.07
2022-11-19T14:07:09.481Z,8.05
2022-11-19T14:09:54.839Z,5.97
2022-11-19T14:12:59.202Z,5.65
2022-11-19T14:16:02.788Z,7.38
2022-11-19T14:18:57.962Z,6.28
2022-11-19T14:21:43.396Z,7.25
2022-11-19T14:24:48.861Z,7.20
2022-11-19T14:27:21.689Z,8.85
2022-11-19T14:29:52.388Z,6.53
2022-11-19T14:32:28.500Z,7.35
2022-11-19T14:35:01.292Z,8.13
2022-11-19T14:37:37.112Z,7.93
2022-11-19T14:40:12.991Z,7.40
2022-11-19T14:43:18.353Z,9.50
2022-11-19T14:46:04.483Z,6.78
2022-11-19T14:48:40.117Z,7.80
2022-11-19T14:51:14.120Z,7.88
2022-11-19T14:53:59.480Z,8.38
2022-11-19T14:56:27.130Z,8.38
2022-11-19T14:58:59.686Z,7.57
2022-11-19T15:01:26.353Z,8.05
2022-11-19T15:03:58.345Z,9.88
2022-11-19T15:06:28.421Z,7.43
2022-11-19T15:09:02.030Z,7.50
2022-11-19T15:12:00.416Z,7.72
2022-11-19T15:14:29.858Z,6.85
2022-11-19T15:17:01.080Z,6.70
2022-11-19T15:19:33.685Z,6.47
2022-11-19T15:22:10.684Z,6.80
2022-11-19T15:24:58.900Z,8.23
2022-11-19T15:27:56.266Z,8.73
2022-11-19T15:31:07.877Z,6.80
2022-11-19T15:34:12.366Z,6.40
2022-11-19T15:36:46.700Z,6.82
2022-11-19T15:39:31.925Z,8.60
2022-11-19T15:42:02.078Z,7.38
2022-11-19T15:47:04.143Z,9.60
2022-11-19T15:49:32.503Z,7.28
2022-11-19T15:52:17.571Z,9.60
2022-11-19T15:54:45.193Z,9.05
2022-11-19T15:57:17.288Z,10.77
2022-11-19T15:59:47.606Z,10.60
2022-11-19T16:02:37.535Z,10.27
2022-11-19T16:05:05.496Z,9.80
2022-11-19T16:07:33.034Z,10.55
2022-11-19T16:10:03.516Z,9.43
2022-11-19T16:12:49.585Z,10.75
2022-11-19T16:15:52.950Z,9.90
2022-11-19T16:18:20.449Z,10.75
2022-11-19T16:20:48.764Z,8.68
2022-11-19T16:23:20.432Z,9.80
2022-11-19T16:25:52.933Z,10.30
2022-11-19T16:28:30.285Z,10.35
2022-11-19T16:31:15.229Z,11.50
2022-11-19T16:33:42.761Z,9.85
2022-11-19T16:36:13.028Z,11.43
2022-11-19T16:38:41.528Z,11.13
2022-11-19T16:41:29.901Z,10.35
2022-11-19T16:43:57.137Z,12.25
2022-11-19T16:46:27.943Z,14.23
2022-11-19T16:48:56.397Z,11.95
2022-11-19T16:51:42.392Z,11.10
2022-11-19T16:54:10.735Z,12.50
2022-11-19T16:56:43.256Z,11.90
2022-11-19T16:59:21.088Z,12.23
2022-11-19T17:02:11.014Z,11.85
2022-11-19T17:04:38.240Z,12.07
2022-11-19T17:07:05.992Z,14.07
2022-11-19T17:09:35.956Z,13.38
2022-11-19T17:12:18.421Z,12.88
2022-11-19T17:14:50.763Z,12.73
2022-11-19T17:17:40.453Z,12.10
2022-11-19T17:22:38.393Z,13.57
2022-11-19T17:25:05.623Z,12.45
2022-11-19T17:27:37.454Z,12.00
2022-11-19T17:30:21.260Z,12.50
2022-11-19T17:33:02.311Z,10.30
2022-11-19T17:35:46.302Z,11.15
2022-11-19T17:38:27.075Z,10.50
2022-11-19T17:40:59.602Z,11.13
2022-11-19T17:43:52.286Z,11.52
2022-11-19T17:46:20.041Z,11.40
2022-11-19T17:48:48.264Z,11.35
2022-11-19T17:51:17.739Z,12.25
2022-11-19T17:53:44.891Z,10.48
2022-11-19T17:56:24.422Z,11.70
2022-11-19T17:58:52.393Z,13.68
2022-11-19T18:01:19.565Z,12.45
2022-11-19T18:03:46.754Z,11.82
2022-11-19T18:06:15.173Z,11.43
2022-11-19T18:08:42.370Z,14.82
2022-11-19T18:11:14.114Z,14.23
2022-11-19T18:13:42.275Z,12.77
2022-11-19T18:16:23.017Z,11.85
2022-11-19T18:18:50.436Z,11.38
2022-11-19T18:21:20.245Z,12.77
2022-11-19T18:23:49.041Z,13.80
2022-11-19T18:26:18.647Z,14.25
2022-11-19T18:28:48.877Z,13.90
2022-11-19T18:31:19.607Z,15.05
2022-11-19T18:33:50.130Z,16.15
2022-11-19T18:36:17.293Z,13.98
2022-11-19T18:38:44.119Z,13.30
2022-11-19T18:41:11.995Z,14.57
2022-11-19T18:43:59.682Z,14.80
2022-11-19T18:46:28.907Z,13.30
2022-11-19T18:48:56.200Z,15.60
2022-11-19T18:51:23.419Z,13.32
2022-11-19T18:53:50.122Z,14.07
2022-11-19T18:56:18.400Z,16.58
2022-11-19T18:58:47.672Z,17.23
2022-11-19T19:01:16.388Z,19.60
2022-11-19T19:03:43.306Z,16.40
2022-11-19T19:06:12.614Z,17.40
2022-11-19T19:08:39.480Z,16.02
2022-11-19T19:11:26.641Z,16.38
2022-11-19T19:13:53.980Z,19.58
2022-11-19T19:16:21.069Z,17.38
2022-11-19T19:18:47.782Z,18.45
2022-11-19T19:21:21.576Z,20.30
2022-11-19T19:23:49.334Z,16.67
2022-11-19T19:26:18.387Z,17.15
2022-11-19T19:28:50.138Z,18.88
2022-11-19T19:31:18.081Z,17.50
2022-11-19T19:33:46.192Z,18.30
2022-11-19T19:36:15.790Z,23.08
2022-11-19T19:38:42.995Z,22.98
2022-11-19T19:41:19.580Z,21.45
2022-11-19T19:43:50.210Z,19.08
2022-11-19T19:46:19.065Z,17.23
2022-11-19T19:48:51.669Z,16.75
2022-11-19T19:51:20.378Z,20.98
2022-11-19T19:53:47.729Z,21.58
2022-11-19T19:56:16.619Z,21.00
2022-11-19T19:58:50.642Z,26.63
2022-11-19T20:01:20.210Z,18.38
2022-11-19T20:03:53.089Z,17.70
2022-11-19T20:06:25.557Z,17.33
2022-11-19T20:08:52.326Z,18.40
2022-11-19T20:11:21.375Z,18.88
2022-11-19T20:13:48.277Z,18.73
2022-11-19T20:16:19.341Z,16.95
2022-11-19T20:18:50.740Z,18.42
2022-11-19T20:21:28.333Z,18.55
2022-11-19T20:23:57.726Z,21.73
2022-11-19T20:26:27.915Z,18.15
2022-11-19T20:31:23.491Z,18.33
2022-11-19T20:33:58.866Z,18.27
2022-11-19T20:36:27.329Z,19.92
2022-11-19T20:38:54.203Z,17.38
2022-11-19T20:41:40.228Z,21.98
2022-11-19T20:44:21.985Z,19.90
2022-11-19T20:47:00.623Z,17.67
2022-11-19T20:49:29.998Z,17.92
2022-11-19T20:51:57.497Z,21.02
2022-11-19T20:54:25.605Z,17.05
2022-11-19T20:56:58.380Z,18.45
2022-11-19T20:59:26.571Z,21.65
2022-11-19T21:01:56.663Z,19.00
2022-11-19T21:06:51.253Z,19.17
2022-11-19T21:09:20.842Z,20.25
2022-11-19T21:11:48.173Z,20.20
2022-11-19T21:14:14.944Z,18.40
2022-11-19T21:16:43.885Z,17.95
2022-11-19T21:19:13.943Z,19.80
2022-11-19T21:21:44.166Z,18.70
2022-11-19T21:24:11.083Z,18.52
2022-11-19T21:26:37.855Z,18.33
2022-11-19T21:29:04.733Z,22.13
2022-11-19T21:31:42.162Z,17.50
2022-11-19T21:34:14.408Z,17.10
2022-11-19T21:36:42.265Z,17.65
2022-11-19T21:39:13.829Z,16.42
2022-11-19T21:41:40.975Z,19.92
2022-11-19T21:44:08.046Z,18.55
2022-11-19T21:46:35.424Z,17.67
2022-11-19T21:49:02.850Z,16.35
2022-11-19T21:51:29.945Z,18.75
2022-11-19T21:53:57.965Z,17.95
2022-11-19T21:56:26.398Z,16.33
2022-11-19T21:58:55.413Z,17.77
2022-11-19T22:01:22.310Z,16.77
2022-11-19T22:03:49.080Z,17.63
2022-11-19T22:06:18.322Z,17.40
2022-11-19T22:08:45.047Z,20.03
2022-11-19T22:11:31.348Z,18.08
2022-11-19T22:13:59.918Z,18.90
2022-11-19T22:16:30.488Z,16.40
2022-11-19T22:18:59.339Z,17.48
2022-11-19T22:21:27.382Z,18.75
2022-11-19T22:23:54.489Z,17.23
2022-11-19T22:26:21.273Z,19.67
2022-11-19T22:28:50.936Z,16.17
2022-11-19T22:31:19.763Z,17.83
2022-11-19T22:33:49.646Z,16.65
2022-11-19T22:36:16.734Z,16.05
2022-11-19T22:38:43.469Z,17.02
2022-11-19T22:41:16.757Z,20.67
2022-11-19T22:43:43.884Z,18.05
2022-11-19T22:46:12.408Z,18.92
2022-11-19T22:48:39.536Z,17.42
2022-11-19T22:51:13.758Z,17.67
2022-11-19T22:53:41.038Z,17.80
2022-11-19T22:56:10.985Z,16.77
2022-11-19T22:58:40.985Z,17.15
2022-11-19T23:01:16.469Z,18.63
2022-11-19T23:03:46.100Z,16.05
2022-11-19T23:06:13.354Z,16.83
2022-11-19T23:08:40.330Z,18.40
2022-11-19T23:11:07.952Z,18.60
2022-11-19T23:13:38.917Z,20.20
2022-11-19T23:16:11.654Z,17.20
2022-11-19T23:18:45.432Z,17.42
2022-11-19T23:21:14.918Z,18.38
2022-11-19T23:23:43.870Z,17.17
2022-11-19T23:26:14.981Z,18.27
2022-11-19T23:28:42.014Z,17.58
2022-11-19T23:31:09.980Z,18.70
2022-11-19T23:33:38.928Z,15.57
2022-11-19T23:36:08.669Z,18.77
2022-11-19T23:38:41.215Z,17.48
2022-11-19T23:41:09.791Z,18.00
2022-11-19T23:43:39.444Z,19.73
2022-11-19T23:46:07.511Z,19.27
2022-11-19T23:48:35.008Z,21.15
2022-11-19T23:51:07.278Z,19.80
2022-11-19T23:53:36.485Z,18.95
2022-11-19T23:56:03.836Z,21.80
2022-11-19T23:58:30.694Z,21.73
